Lincoln Acres, California
Current Conditions -  °F | °C
As of 1:51 PM on Wednesday 17 Dec 2014 (Local Time) from KSAN Reporting Station
Broken Clouds Broken Clouds  
Wind Chill: 66°   Ceiling: 4200
Heat Index: 66°   Visibility: 10mi
Dew Point: 49°   Wind: 14mph
Humidity: 54%   Direction: 280°W
Pressure: 30.09"   Gusts: 20mph
Location:  32.67°N, 117.07°W
Report Text: KSAN 172151Z 28012G17KT 10SM SCT031 BKN042 19/09 A3009 RMK AO2 SLP188 T01890094
Loading
Personal Weather Stations






























Interactive Weather Map New forecast layout! Learn more

10-Day Weather Forecast

Advertisements
Track Severe Weather on mobile